Résultats

7KM DU SET
7 km du Sept. Édition 2016.

7 Km
18/06/2016 à 18:00:00 - Aix en Provence (13)
115 arrivant(e)s.





Place▲ Temps Dossard Nom Prenom Categ #Categ Sexe #Sexe Club Vit Moy Diplôme Partager
1 00:24:54 95 MARTINEZ OLIVIER M1M 1 M 1 MAIRIE SPORTIVE FORT DE FRANCE 16.87
2 00:26:32 85 TEISSIER REMI SEM 1 M 2 15.83
3 00:26:50 35 HAMHAMI BELKHACEM SEM 2 M 3 OLYMPIQUE CABRIES CALAS 15.65
4 00:27:08 29 GASTALDI BENJAMIN SEM 3 M 4 KMS 15.48
5 00:27:45 106 MELIA JEAN-FRANCOIS M1M 2 M 5 15.14
6 00:28:35 92 PLANTIER PHILIPPE M2M 1 M 6 14.69
7 00:29:09 62 PERRIN JEROME SEM 4 M 7 PERRIN BROTHERS RUNNING 14.41
8 00:29:22 57 MITELMAN BORIS M2M 2 M 8 OLYMPIQUE CABRIES CALAS 14.30
9 00:29:31 105 RIVIER JEROME SEM 5 M 9 ROUSSET TRIATHLON 14.23
10 00:29:36 97 BELMADI SID-AHMED M3M 1 M 10 SCO STE MARGURITE 14.19
11 00:30:00 71 ROSSI FREDERIC SEM 6 M 11 14.00
12 00:30:05 108 TERRANOVA THOMAS CAM 1 M 12 CLES GARDANNE 13.96
13 00:30:35 96 STAUNTON GERARD M3M 2 M 13 13.73
14 00:30:41 93 SERNA JACQUES M1M 3 M 14 MAIRIE SPORTIVE FORT DE FRANCE 13.69
15 00:30:45 47 MARQUET ANNELYNE SEM 7 M 15 AIX ATHLE PROVENCE 13.66
16 00:30:53 3 AUZANNEAU ISABELLE SEF 1 F 1 OLYMPIQUE CABRIES CALAS 13.60
17 00:30:54 58 MOSKOVTCHENKO LOUIS CAM 2 M 16 13.59
18 00:31:18 8 BEERLINGS ELKE SEF 2 F 2 AIL ROUSSET 13.42
19 00:31:23 45 LIGER SYLVAIN M1M 4 M 17 13.38
20 00:31:58 74 SCHIANO-DI-COSCIA JEROME M1M 5 M 18 KM 42.195 MARSEILLE 13.14
21 00:32:23 7 BEDENE OLIVIER M1M 6 M 19 12.97
22 00:32:48 63 PERRIN JULIEN SEM 8 M 20 PERRIN BROTHERS RUNNING 12.80
23 00:32:55 18 CHIAPPETTA MAGALIE M2F 1 F 3 AIX ATHLE PROVENCE 12.76
24 00:33:27 114 PRABEL VIOLETTE CAF 1 F 4 TRIATHLAIX 12.56
25 00:33:27 4 AUZANNEAU NATHALIE M1F 1 F 5 EFCVO 12.56
26 00:33:37 40 KIEFFER MAEL SEM 9 M 21 OLYMPIQUE CABRIES CALAS 12.49
27 00:33:46 44 LAURENT ANNE-MARIE M1F 2 F 6 ROGNAC ATHLETIC CLUB 12.44
28 00:33:51 27 FERRANDO JEAN-CLAUDE M1M 7 M 22 SPEEDY CLUB DE PROVENCE 12.41
29 00:34:04 115 PRABEL FRANCK M2M 3 M 23 SPEDDY CLUB PROVENCE 12.33
30 00:34:30 72 ROUSSEL ELODIE SEF 3 F 7 AIX ATHLE PROVENCE 12.17
31 00:34:47 56 MIGNEMI ROLAND M2M 4 M 24 ROUSSET TRIATHLON 12.07
32 00:34:57 120 MARY LEO CAM 3 M 25 12.02
33 00:35:09 86 VADILLO EDUARDO SEM 10 M 26 11.95
34 00:35:30 9 BENSOT ALI M3M 3 M 27 AIL ROUSSET 11.83
35 00:35:30 60 PAULAY GILBERT M4M 1 M 28 11.83
36 00:35:33 23 DER-KASPARIAN GERARD M2M 5 M 29 CABBA 11.81
37 00:35:44 103 CAPPELAERE ARISTIDE M2M 6 M 30 11.75
38 00:35:45 111 NOUGUIER CARINE M1F 3 F 8 11.75
39 00:35:47 13 BIGOT NATACHA M1F 4 F 9 AIX ATHLE PROVENCE 11.74
40 00:35:50 1 AGUSTIN JEAN-LOUIS SEM 11 M 31 SPEEDY CLUB DE PROVENCE 11.72
41 00:35:59 98 MATHIEU JEAN-MARC M2M 7 M 32 11.67
42 00:35:59 84 TEISSIER ERIKA SEF 4 F 10 11.67
43 00:36:00 59 MOSKOVTCHENKO VINCENT M1M 8 M 33 11.67
44 00:36:22 41 KOPF ALAIN M2M 8 M 34 11.55
45 00:36:29 21 COURTES ALAIN M3M 4 M 35 11.51
46 00:36:35 2 AIGUIER-GROSSO AURELIE M1F 5 F 11 OLYMPIQUE DE MARSEILLE ATHLE 11.48
47 00:36:35 87 VANDENBUSSCHE FREDERIC M2M 9 M 36 OLYMPIQUE DE MARSEILLE ATHLE 11.48
48 00:36:49 81 SUAREZ JOSEPH M1M 9 M 37 SPEEDY CLUB DE PROVENCE 11.41
49 00:36:56 89 VIOU DOMINIQUE M3F 1 F 12 MACADAM BASKETS CE CMA-CGM 11.37
50 00:36:56 64 PESAN MICHEL M2M 10 M 38 SCO STE MARGURITE 11.37
51 00:37:20 94 PETIT CHRISTIAN M3M 5 M 39 AIX ATHLE PROVENCE 11.25
52 00:37:26 109 MANSON MARCEL M3M 6 M 40 AIX ATHLE PROVENCE 11.22
53 00:37:36 5 BARTOCCIONI LAURENCE SEF 5 F 13 AIX ATHLE PROVENCE 11.17
54 00:37:38 22 COURTES GENEVIEVE M2F 2 F 14 11.16
55 00:37:39 32 GINCOURT CYRIL M1M 10 M 41 A VOS BASKETS ISTRES 11.16
56 00:37:43 99 BLONDEAU EMMA CAF 2 F 15 11.14
57 00:37:47 82 SUAREZ MARIE-LINE M1F 6 F 16 AIX ATHLE PROVENCE 11.12
58 00:37:49 90 ZEGGANE EVELYNE M1F 7 F 17 SPEEDY CLUB DE PROVENCE 11.11
59 00:37:51 10 BERTRAND GEORGES-FRANCOIS M4M 2 M 42 AIX ATHLE PROVENCE 11.10
60 00:37:56 113 PRABEL CHARLOTTE CAF 3 F 18 AVC AIX 11.07
61 00:37:57 66 PONSOT SYLVIE M2F 3 F 19 AIL ROUSSET 11.07
62 00:38:10 6 BATARD CORALINE SEF 6 F 20 KMS 11.00
63 00:38:25 30 GAUTIER GERARD M3M 7 M 43 AIX ATHLE PROVENCE 10.93
64 00:38:45 26 DIEULOUFET MICHELE M2F 4 F 21 ELAN LAMBESCAIN 10.84
65 00:38:50 34 HAMANN ERIC SEM 12 M 44 10.82
66 00:39:05 20 CHICHERY STEPHANE M2M 11 M 45 10.75
67 00:39:22 24 DERRAC PATRICK M3M 8 M 46 10.67
68 00:39:31 12 BIGAY BERTRAND M1M 11 M 47 AIX ATHLE PROVENCE 10.63
69 00:39:33 37 JAROSZ GWENDALINE M1F 8 F 22 10.62
70 00:39:36 52 MELANGER PHILIPPE M2M 12 M 48 SET CLUB 10.61
71 00:40:01 39 KAPFERER MARIELLE SEF 7 F 23 AIX ATHLE PROVENCE 10.50
72 00:40:22 117 ROCHE CHRISTIAN M2M 13 M 49 10.40
73 00:40:22 112 PRABEL VERONIQUE M1F 9 F 24 SPEEDY CLUB DE PROVENCE 10.40
74 00:40:23 16 BOURGEOIS ERNEST M2M 14 M 50 10.40
75 00:41:05 78 SIDCARA PAUL M3M 9 M 51 MARSEILLE TRAIL CLUB 10.22
76 00:41:31 79 SOUBEYRAND GUY M1M 12 M 52 10.12
77 00:41:50 80 SOULLIER CHRISTOPHE M2M 15 M 53 10.04
78 00:42:18 83 TEISSIER ANDRE M4M 3 M 54 BERRE SPORT ATHLETISME 9.93
79 00:42:19 15 BORIE LOUISE M2F 5 F 25 AIX ATHLE PROVENCE 9.93
80 00:42:19 42 LA-MOTTA NADEGE SEF 8 F 26 9.93
81 00:42:23 68 RODRIGUEZ AMANDO M3M 10 M 55 AIX ATHLE PROVENCE 9.91
82 00:43:15 55 MEUNIER MELANIE SEF 9 F 27 ROGNAC ATHLETIC CLUB 9.71
83 00:43:29 88 VINE JOHANNA M1F 10 F 28 9.66
84 00:43:38 31 GAUTIER YOLANDE M2F 6 F 29 AIX ATHLE PROVENCE 9.63
85 00:43:54 75 SCHIEMANN-FONTAINE ISAURE CAF 4 F 30 KM 42.195 MARSEILLE 9.57
86 00:44:00 50 MASSE LAURE M1F 11 F 31 9.55
87 00:44:21 91 ICARDI MICHEL M3M 11 M 56 LA FOULEE AURELIENNE TRETS 9.47
88 00:44:29 77 SIDCARA FLORIAN CAM 4 M 57 TENNIS CLUB LA FOURRAGERE 9.44
89 00:44:43 25 DEWAVRIN RODY M3M 12 M 58 AIX ATHLE PROVENCE 9.39
90 00:44:50 76 SELLI JULIEN M1M 13 M 59 9.37
91 00:45:24 33 GUIRAND CHRISTINE M2F 7 F 32 9.25
92 00:46:11 102 CAPPELAERE CATHERINE M2F 8 F 33 9.09
93 00:46:14 100 DAHERON DANIEL M3M 13 M 60 9.08
94 00:46:17 70 ROSSI BERNADETTE M3F 2 F 34 9.07
95 00:46:47 104 SMITH ARLAYNE M2F 9 F 35 AIX ATHLE PROVENCE 8.98
96 00:46:52 43 LASAGESSE LAETITIA SEF 10 F 36 8.96
97 00:46:57 51 MAURIZOT KARINE M1F 12 F 37 8.95
98 00:47:18 11 BESSETTES MARIE-LOUISE M3F 3 F 38 ROGNAC ATHLETIC CLUB 8.88
99 00:47:31 65 PIEGELIN EVE SEF 11 F 39 8.84
100 00:47:58 107 KOFFI-DIAS PERRINE SEF 12 F 40 OLYMPIQUE CABRIES CALAS 8.76